TNCC/CUR METAR and TAF weather

Enter ICAO airport designator
Station Type Date Time Source
TNCC METAR 2022/05/24 12:00 UTC NOAA

TNCC 241200Z 11014G24KT 9999 -SHRA SCT017TCU BKN035 27/23 Q1013 NOSIG=


Station Type Date Time Source
TNCC Decoded METAR 2022/05/24 12:00 UTC NOAA

Hato Airport, Curacao, Netherlands Antilles (TNCC) 12-12N 068-58W 67M
May 24, 2022 - 08:00 AM EDT / 2022.05.24 1200 UTC
Wind: from the ESE (110 degrees) at 16 MPH (14 KT) gusting to 28 MPH (24 KT):0
Visibility: greater than 7 mile(s):0
Sky conditions: mostly cloudy
Weather: light rain showers; Towering cumulus clouds observed
Temperature: 80 F (27 C)
Dew Point: 73 F (23 C)
Relative Humidity: 78%
Pressure (altimeter): 29.91 in. Hg (1013 hPa)
ob: TNCC 241200Z 11014G24KT 9999 -SHRA SCT017TCU BKN035 27/23 Q1013 NOSIG=
cycle: 12

Station Type Date Time Source
TNCC TAF 2022/05/24 12:23 UTC NOAA

TAF TNCC 241115Z 2412/2512 11013KT 9999 SCT018 PROB30
TEMPO 2412/2415 5000 SHRA BKN015

Example: see airport list